Berlin, Connecticut
Current Conditions -  °F | °C
As of 11:53 AM on Wednesday 22 Oct 2014 (Local Time) from KMMK Reporting Station
Overcast Overcast  
Wind Chill: 55°   Ceiling: 1700
Heat Index: 55°   Visibility: 10mi
Dew Point: 49°   Wind: 9mph
Humidity: 80%   Direction: 10°N
Pressure: 29.96"   Gusts: 21mph
Location:  41.611°N, 72.7774°W
Report Text: KMMK 221553Z AUTO 01008G18KT 340V050 10SM OVC017 13/09 A2996 RMK AO2 SLP145 T01280094 TSNO
Loading
Personal Weather Stations






























Interactive Weather Map
Tropical Storm Tracking
New forecast layout! Learn more

10-Day Weather Forecast

Advertisements
Track Severe Weather on mobile